sensor_id;sensor_type;location;lat;lon;timestamp;P1;durP1;ratioP1;P2;durP2;ratioP2
79284;SDS011;68734;50.452;11.636;2023-12-20T00:01:01;0.70;;;0.60;;
79284;SDS011;68734;50.452;11.636;2023-12-20T00:03:31;1.20;;;0.70;;
79284;SDS011;68734;50.452;11.636;2023-12-20T00:05:56;0.70;;;0.50;;
79284;SDS011;68734;50.452;11.636;2023-12-20T00:08:22;1.48;;;0.60;;
79284;SDS011;68734;50.452;11.636;2023-12-20T00:10:47;0.65;;;0.60;;
79284;SDS011;68734;50.452;11.636;2023-12-20T00:13:13;0.90;;;0.50;;
79284;SDS011;68734;50.452;11.636;2023-12-20T00:15:40;0.85;;;0.55;;
79284;SDS011;68734;50.452;11.636;2023-12-20T00:18:06;0.80;;;0.60;;
79284;SDS011;68734;50.452;11.636;2023-12-20T00:20:32;1.02;;;0.43;;
79284;SDS011;68734;50.452;11.636;2023-12-20T00:22:57;1.02;;;0.57;;
79284;SDS011;68734;50.452;11.636;2023-12-20T00:25:23;0.95;;;0.60;;
79284;SDS011;68734;50.452;11.636;2023-12-20T00:27:51;0.68;;;0.50;;
79284;SDS011;68734;50.452;11.636;2023-12-20T00:30:17;0.70;;;0.40;;
79284;SDS011;68734;50.452;11.636;2023-12-20T00:32:43;0.70;;;0.43;;
79284;SDS011;68734;50.452;11.636;2023-12-20T00:35:14;0.98;;;0.50;;
79284;SDS011;68734;50.452;11.636;2023-12-20T00:37:41;0.95;;;0.50;;
79284;SDS011;68734;50.452;11.636;2023-12-20T00:40:07;1.20;;;0.70;;
79284;SDS011;68734;50.452;11.636;2023-12-20T00:42:33;1.65;;;0.60;;
79284;SDS011;68734;50.452;11.636;2023-12-20T00:44:59;0.70;;;0.40;;
79284;SDS011;68734;50.452;11.636;2023-12-20T00:47:25;0.47;;;0.40;;
79284;SDS011;68734;50.452;11.636;2023-12-20T00:49:51;0.93;;;0.47;;
79284;SDS011;68734;50.452;11.636;2023-12-20T00:52:16;0.70;;;0.30;;
79284;SDS011;68734;50.452;11.636;2023-12-20T00:54:42;0.47;;;0.32;;
79284;SDS011;68734;50.452;11.636;2023-12-20T00:57:08;0.93;;;0.30;;
79284;SDS011;68734;50.452;11.636;2023-12-20T00:59:36;0.85;;;0.60;;
79284;SDS011;68734;50.452;11.636;2023-12-20T01:02:01;0.40;;;0.30;;
79284;SDS011;68734;50.452;11.636;2023-12-20T01:04:27;0.10;;;0.10;;
79284;SDS011;68734;50.452;11.636;2023-12-20T01:06:55;1.00;;;0.38;;
79284;SDS011;68734;50.452;11.636;2023-12-20T01:09:21;0.75;;;0.30;;
79284;SDS011;68734;50.452;11.636;2023-12-20T01:11:51;0.47;;;0.20;;
79284;SDS011;68734;50.452;11.636;2023-12-20T01:14:16;0.60;;;0.43;;
79284;SDS011;68734;50.452;11.636;2023-12-20T01:16:44;0.77;;;0.40;;
79284;SDS011;68734;50.452;11.636;2023-12-20T01:19:10;0.75;;;0.43;;
79284;SDS011;68734;50.452;11.636;2023-12-20T01:21:38;0.30;;;0.10;;
79284;SDS011;68734;50.452;11.636;2023-12-20T01:24:08;0.57;;;0.32;;
79284;SDS011;68734;50.452;11.636;2023-12-20T01:26:34;0.73;;;0.20;;
79284;SDS011;68734;50.452;11.636;2023-12-20T01:28:59;0.65;;;0.30;;
79284;SDS011;68734;50.452;11.636;2023-12-20T01:31:24;0.68;;;0.22;;
79284;SDS011;68734;50.452;11.636;2023-12-20T01:33:52;0.82;;;0.57;;
79284;SDS011;68734;50.452;11.636;2023-12-20T01:36:18;0.15;;;0.10;;
79284;SDS011;68734;50.452;11.636;2023-12-20T01:38:43;0.75;;;0.30;;
79284;SDS011;68734;50.452;11.636;2023-12-20T01:41:08;0.10;;;0.10;;
79284;SDS011;68734;50.452;11.636;2023-12-20T01:43:34;0.15;;;0.10;;
79284;SDS011;68734;50.452;11.636;2023-12-20T01:45:59;0.45;;;0.20;;
79284;SDS011;68734;50.452;11.636;2023-12-20T01:48:27;0.28;;;0.20;;
79284;SDS011;68734;50.452;11.636;2023-12-20T01:50:54;0.20;;;0.20;;
79284;SDS011;68734;50.452;11.636;2023-12-20T01:53:23;0.20;;;0.10;;
79284;SDS011;68734;50.452;11.636;2023-12-20T01:55:50;0.38;;;0.20;;
79284;SDS011;68734;50.452;11.636;2023-12-20T01:58:19;0.10;;;0.10;;
79284;SDS011;68734;50.452;11.636;2023-12-20T02:00:45;0.15;;;0.10;;
79284;SDS011;68734;50.452;11.636;2023-12-20T02:03:11;0.40;;;0.22;;
79284;SDS011;68734;50.452;11.636;2023-12-20T02:05:39;0.50;;;0.20;;
79284;SDS011;68734;50.452;11.636;2023-12-20T02:08:07;0.10;;;0.10;;
79284;SDS011;68734;50.452;11.636;2023-12-20T02:10:33;0.30;;;0.20;;
79284;SDS011;68734;50.452;11.636;2023-12-20T02:13:01;0.17;;;0.10;;
79284;SDS011;68734;50.452;11.636;2023-12-20T02:15:27;0.13;;;0.10;;
79284;SDS011;68734;50.452;11.636;2023-12-20T02:17:52;0.10;;;0.00;;
79284;SDS011;68734;50.452;11.636;2023-12-20T02:20:18;0.30;;;0.30;;
79284;SDS011;68734;50.452;11.636;2023-12-20T02:22:44;0.15;;;0.10;;
79284;SDS011;68734;50.452;11.636;2023-12-20T02:25:09;0.10;;;0.10;;
79284;SDS011;68734;50.452;11.636;2023-12-20T02:27:34;0.20;;;0.10;;
79284;SDS011;68734;50.452;11.636;2023-12-20T02:30:00;0.10;;;0.03;;
79284;SDS011;68734;50.452;11.636;2023-12-20T02:32:26;0.10;;;0.10;;
79284;SDS011;68734;50.452;11.636;2023-12-20T02:34:51;0.13;;;0.05;;
79284;SDS011;68734;50.452;11.636;2023-12-20T02:37:19;0.00;;;0.00;;
79284;SDS011;68734;50.452;11.636;2023-12-20T02:39:45;3.20;;;0.10;;
79284;SDS011;68734;50.452;11.636;2023-12-20T02:42:10;0.10;;;0.10;;
79284;SDS011;68734;50.452;11.636;2023-12-20T02:44:36;0.10;;;0.10;;
79284;SDS011;68734;50.452;11.636;2023-12-20T02:47:03;0.00;;;0.00;;
79284;SDS011;68734;50.452;11.636;2023-12-20T02:49:29;0.17;;;0.13;;
79284;SDS011;68734;50.452;11.636;2023-12-20T02:51:54;0.10;;;0.10;;
79284;SDS011;68734;50.452;11.636;2023-12-20T02:54:20;0.20;;;0.10;;
79284;SDS011;68734;50.452;11.636;2023-12-20T02:56:46;0.20;;;0.17;;
79284;SDS011;68734;50.452;11.636;2023-12-20T02:59:11;0.00;;;0.00;;
79284;SDS011;68734;50.452;11.636;2023-12-20T03:01:45;0.00;;;0.00;;
79284;SDS011;68734;50.452;11.636;2023-12-20T03:04:11;0.00;;;0.00;;
79284;SDS011;68734;50.452;11.636;2023-12-20T03:06:38;0.10;;;0.00;;
79284;SDS011;68734;50.452;11.636;2023-12-20T03:09:06;0.10;;;0.10;;
79284;SDS011;68734;50.452;11.636;2023-12-20T03:11:31;0.10;;;0.10;;
79284;SDS011;68734;50.452;11.636;2023-12-20T03:13:59;0.25;;;0.20;;
79284;SDS011;68734;50.452;11.636;2023-12-20T03:16:24;0.08;;;0.05;;
79284;SDS011;68734;50.452;11.636;2023-12-20T03:18:52;0.10;;;0.10;;
79284;SDS011;68734;50.452;11.636;2023-12-20T03:21:17;0.10;;;0.10;;
79284;SDS011;68734;50.452;11.636;2023-12-20T03:23:43;0.10;;;0.10;;
79284;SDS011;68734;50.452;11.636;2023-12-20T03:26:09;0.03;;;0.00;;
79284;SDS011;68734;50.452;11.636;2023-12-20T03:28:35;0.10;;;0.10;;
79284;SDS011;68734;50.452;11.636;2023-12-20T03:31:01;0.25;;;0.10;;
79284;SDS011;68734;50.452;11.636;2023-12-20T03:33:29;0.10;;;0.00;;
79284;SDS011;68734;50.452;11.636;2023-12-20T03:35:55;0.08;;;0.08;;
79284;SDS011;68734;50.452;11.636;2023-12-20T03:38:21;0.25;;;0.17;;
79284;SDS011;68734;50.452;11.636;2023-12-20T03:40:49;0.13;;;0.00;;
79284;SDS011;68734;50.452;11.636;2023-12-20T03:43:14;0.00;;;0.00;;
79284;SDS011;68734;50.452;11.636;2023-12-20T03:45:40;0.20;;;0.10;;
79284;SDS011;68734;50.452;11.636;2023-12-20T03:48:07;0.28;;;0.08;;
79284;SDS011;68734;50.452;11.636;2023-12-20T03:50:35;0.00;;;0.00;;
79284;SDS011;68734;50.452;11.636;2023-12-20T03:53:01;0.20;;;0.10;;
79284;SDS011;68734;50.452;11.636;2023-12-20T03:55:27;0.20;;;0.10;;
79284;SDS011;68734;50.452;11.636;2023-12-20T03:57:52;0.10;;;0.03;;
79284;SDS011;68734;50.452;11.636;2023-12-20T04:00:20;0.00;;;0.00;;
79284;SDS011;68734;50.452;11.636;2023-12-20T04:02:45;0.20;;;0.20;;
79284;SDS011;68734;50.452;11.636;2023-12-20T04:05:11;0.30;;;0.10;;
79284;SDS011;68734;50.452;11.636;2023-12-20T04:07:37;0.10;;;0.10;;
79284;SDS011;68734;50.452;11.636;2023-12-20T04:10:03;0.22;;;0.10;;
79284;SDS011;68734;50.452;11.636;2023-12-20T04:12:29;0.20;;;0.10;;
79284;SDS011;68734;50.452;11.636;2023-12-20T04:14:59;0.10;;;0.10;;
79284;SDS011;68734;50.452;11.636;2023-12-20T04:17:25;0.40;;;0.10;;
79284;SDS011;68734;50.452;11.636;2023-12-20T04:19:50;0.20;;;0.20;;
79284;SDS011;68734;50.452;11.636;2023-12-20T04:22:19;0.20;;;0.20;;
79284;SDS011;68734;50.452;11.636;2023-12-20T04:24:45;0.57;;;0.20;;
79284;SDS011;68734;50.452;11.636;2023-12-20T04:27:11;0.75;;;0.20;;
79284;SDS011;68734;50.452;11.636;2023-12-20T04:29:36;0.45;;;0.10;;
79284;SDS011;68734;50.452;11.636;2023-12-20T04:32:02;0.10;;;0.10;;
79284;SDS011;68734;50.452;11.636;2023-12-20T04:34:29;0.17;;;0.15;;
79284;SDS011;68734;50.452;11.636;2023-12-20T04:36:55;0.57;;;0.35;;
79284;SDS011;68734;50.452;11.636;2023-12-20T04:39:20;0.20;;;0.10;;
79284;SDS011;68734;50.452;11.636;2023-12-20T04:41:46;0.30;;;0.20;;
79284;SDS011;68734;50.452;11.636;2023-12-20T04:44:12;0.45;;;0.13;;
79284;SDS011;68734;50.452;11.636;2023-12-20T04:46:38;0.08;;;0.03;;
79284;SDS011;68734;50.452;11.636;2023-12-20T04:49:04;0.38;;;0.28;;
79284;SDS011;68734;50.452;11.636;2023-12-20T04:51:35;0.10;;;0.10;;
79284;SDS011;68734;50.452;11.636;2023-12-20T04:54:05;0.10;;;0.10;;
79284;SDS011;68734;50.452;11.636;2023-12-20T04:56:31;0.45;;;0.40;;
79284;SDS011;68734;50.452;11.636;2023-12-20T04:58:56;0.20;;;0.20;;
79284;SDS011;68734;50.452;11.636;2023-12-20T05:01:22;0.25;;;0.20;;
79284;SDS011;68734;50.452;11.636;2023-12-20T05:03:47;0.30;;;0.28;;
79284;SDS011;68734;50.452;11.636;2023-12-20T05:06:12;1.25;;;0.30;;
79284;SDS011;68734;50.452;11.636;2023-12-20T05:08:38;0.68;;;0.50;;
79284;SDS011;68734;50.452;11.636;2023-12-20T05:11:03;0.63;;;0.47;;
79284;SDS011;68734;50.452;11.636;2023-12-20T05:13:29;0.98;;;0.40;;
79284;SDS011;68734;50.452;11.636;2023-12-20T05:15:55;0.68;;;0.50;;
79284;SDS011;68734;50.452;11.636;2023-12-20T05:18:20;0.75;;;0.57;;
79284;SDS011;68734;50.452;11.636;2023-12-20T05:20:46;2.03;;;1.42;;
79284;SDS011;68734;50.452;11.636;2023-12-20T05:23:12;1.35;;;0.90;;
79284;SDS011;68734;50.452;11.636;2023-12-20T05:25:38;1.33;;;1.20;;
79284;SDS011;68734;50.452;11.636;2023-12-20T05:28:04;1.90;;;1.25;;
79284;SDS011;68734;50.452;11.636;2023-12-20T05:30:31;1.60;;;1.02;;
79284;SDS011;68734;50.452;11.636;2023-12-20T05:32:57;1.90;;;1.17;;
79284;SDS011;68734;50.452;11.636;2023-12-20T05:35:25;1.30;;;0.88;;
79284;SDS011;68734;50.452;11.636;2023-12-20T05:37:50;1.33;;;1.02;;
79284;SDS011;68734;50.452;11.636;2023-12-20T05:40:16;1.38;;;0.90;;
79284;SDS011;68734;50.452;11.636;2023-12-20T05:42:41;2.17;;;1.40;;
79284;SDS011;68734;50.452;11.636;2023-12-20T05:45:07;2.38;;;1.45;;
79284;SDS011;68734;50.452;11.636;2023-12-20T05:47:33;2.45;;;1.40;;
79284;SDS011;68734;50.452;11.636;2023-12-20T05:50:00;2.20;;;1.52;;
79284;SDS011;68734;50.452;11.636;2023-12-20T05:52:26;3.55;;;1.48;;
79284;SDS011;68734;50.452;11.636;2023-12-20T05:54:56;2.45;;;1.58;;
79284;SDS011;68734;50.452;11.636;2023-12-20T05:57:23;2.35;;;1.60;;
79284;SDS011;68734;50.452;11.636;2023-12-20T05:59:48;2.45;;;1.55;;
79284;SDS011;68734;50.452;11.636;2023-12-20T06:02:14;1.98;;;1.50;;
79284;SDS011;68734;50.452;11.636;2023-12-20T06:04:42;2.88;;;1.70;;
79284;SDS011;68734;50.452;11.636;2023-12-20T06:07:08;1.40;;;0.98;;
79284;SDS011;68734;50.452;11.636;2023-12-20T06:09:33;2.22;;;1.17;;
79284;SDS011;68734;50.452;11.636;2023-12-20T06:11:59;1.67;;;1.48;;
79284;SDS011;68734;50.452;11.636;2023-12-20T06:14:29;1.45;;;1.10;;
79284;SDS011;68734;50.452;11.636;2023-12-20T06:16:55;1.60;;;1.15;;
79284;SDS011;68734;50.452;11.636;2023-12-20T06:19:26;1.73;;;0.80;;
79284;SDS011;68734;50.452;11.636;2023-12-20T06:21:51;0.80;;;0.70;;
79284;SDS011;68734;50.452;11.636;2023-12-20T06:24:19;0.90;;;0.70;;
79284;SDS011;68734;50.452;11.636;2023-12-20T06:26:47;0.75;;;0.50;;
79284;SDS011;68734;50.452;11.636;2023-12-20T06:29:12;0.65;;;0.52;;
79284;SDS011;68734;50.452;11.636;2023-12-20T06:31:37;2.00;;;1.10;;
79284;SDS011;68734;50.452;11.636;2023-12-20T06:34:03;0.82;;;0.65;;
79284;SDS011;68734;50.452;11.636;2023-12-20T06:36:28;1.30;;;0.70;;
79284;SDS011;68734;50.452;11.636;2023-12-20T06:38:54;0.63;;;0.55;;
79284;SDS011;68734;50.452;11.636;2023-12-20T06:41:19;1.10;;;0.85;;
79284;SDS011;68734;50.452;11.636;2023-12-20T06:43:45;0.60;;;0.40;;
79284;SDS011;68734;50.452;11.636;2023-12-20T06:46:10;0.40;;;0.40;;
79284;SDS011;68734;50.452;11.636;2023-12-20T06:48:38;1.08;;;0.40;;
79284;SDS011;68734;50.452;11.636;2023-12-20T06:51:03;0.80;;;0.50;;
79284;SDS011;68734;50.452;11.636;2023-12-20T06:53:29;0.73;;;0.50;;
79284;SDS011;68734;50.452;11.636;2023-12-20T06:55:54;0.60;;;0.40;;
79284;SDS011;68734;50.452;11.636;2023-12-20T06:58:21;1.45;;;1.23;;
79284;SDS011;68734;50.452;11.636;2023-12-20T07:00:47;1.45;;;1.02;;
79284;SDS011;68734;50.452;11.636;2023-12-20T07:03:16;1.75;;;1.38;;
79284;SDS011;68734;50.452;11.636;2023-12-20T07:05:42;0.73;;;0.60;;
79284;SDS011;68734;50.452;11.636;2023-12-20T07:08:07;1.85;;;0.63;;
79284;SDS011;68734;50.452;11.636;2023-12-20T07:10:35;0.93;;;0.60;;
79284;SDS011;68734;50.452;11.636;2023-12-20T07:13:00;0.60;;;0.40;;
79284;SDS011;68734;50.452;11.636;2023-12-20T07:15:26;0.65;;;0.50;;
79284;SDS011;68734;50.452;11.636;2023-12-20T07:17:53;1.02;;;0.60;;
79284;SDS011;68734;50.452;11.636;2023-12-20T07:20:20;0.80;;;0.47;;
79284;SDS011;68734;50.452;11.636;2023-12-20T07:22:46;0.50;;;0.40;;
79284;SDS011;68734;50.452;11.636;2023-12-20T07:25:11;0.70;;;0.50;;
79284;SDS011;68734;50.452;11.636;2023-12-20T07:27:37;1.17;;;0.47;;
79284;SDS011;68734;50.452;11.636;2023-12-20T07:30:02;0.30;;;0.30;;
79284;SDS011;68734;50.452;11.636;2023-12-20T07:32:30;0.20;;;0.17;;
79284;SDS011;68734;50.452;11.636;2023-12-20T07:34:58;0.38;;;0.22;;
79284;SDS011;68734;50.452;11.636;2023-12-20T07:37:23;0.20;;;0.20;;
79284;SDS011;68734;50.452;11.636;2023-12-20T07:39:49;0.15;;;0.15;;
79284;SDS011;68734;50.452;11.636;2023-12-20T07:42:14;0.60;;;0.28;;
79284;SDS011;68734;50.452;11.636;2023-12-20T07:44:40;0.38;;;0.20;;
79284;SDS011;68734;50.452;11.636;2023-12-20T07:47:05;0.30;;;0.20;;
79284;SDS011;68734;50.452;11.636;2023-12-20T07:49:31;2.35;;;0.57;;
79284;SDS011;68734;50.452;11.636;2023-12-20T07:52:01;1.95;;;0.60;;
79284;SDS011;68734;50.452;11.636;2023-12-20T07:54:27;0.80;;;0.47;;
79284;SDS011;68734;50.452;11.636;2023-12-20T07:56:52;1.17;;;0.80;;
79284;SDS011;68734;50.452;11.636;2023-12-20T07:59:17;1.00;;;0.60;;
79284;SDS011;68734;50.452;11.636;2023-12-20T08:01:43;6.10;;;4.60;;
79284;SDS011;68734;50.452;11.636;2023-12-20T08:04:08;2.33;;;1.60;;
79284;SDS011;68734;50.452;11.636;2023-12-20T08:06:34;1.98;;;1.23;;
79284;SDS011;68734;50.452;11.636;2023-12-20T08:09:02;1.42;;;0.70;;
79284;SDS011;68734;50.452;11.636;2023-12-20T08:11:28;2.42;;;1.02;;
79284;SDS011;68734;50.452;11.636;2023-12-20T08:13:53;1.80;;;1.02;;
79284;SDS011;68734;50.452;11.636;2023-12-20T08:16:19;3.47;;;1.25;;
79284;SDS011;68734;50.452;11.636;2023-12-20T08:18:44;1.45;;;1.05;;
79284;SDS011;68734;50.452;11.636;2023-12-20T08:21:10;2.90;;;1.88;;
79284;SDS011;68734;50.452;11.636;2023-12-20T08:23:37;3.90;;;2.13;;
79284;SDS011;68734;50.452;11.636;2023-12-20T08:26:04;2.83;;;1.88;;
79284;SDS011;68734;50.452;11.636;2023-12-20T08:28:30;2.58;;;1.77;;
79284;SDS011;68734;50.452;11.636;2023-12-20T08:30:56;4.15;;;1.98;;
79284;SDS011;68734;50.452;11.636;2023-12-20T08:33:21;5.78;;;2.33;;
79284;SDS011;68734;50.452;11.636;2023-12-20T08:35:47;2.53;;;1.95;;
79284;SDS011;68734;50.452;11.636;2023-12-20T08:38:13;4.55;;;1.80;;
79284;SDS011;68734;50.452;11.636;2023-12-20T08:40:39;7.25;;;2.40;;
79284;SDS011;68734;50.452;11.636;2023-12-20T08:43:05;3.70;;;2.50;;
79284;SDS011;68734;50.452;11.636;2023-12-20T08:45:32;2.20;;;1.70;;
79284;SDS011;68734;50.452;11.636;2023-12-20T08:47:58;2.85;;;2.28;;
79284;SDS011;68734;50.452;11.636;2023-12-20T08:50:24;3.05;;;1.83;;
79284;SDS011;68734;50.452;11.636;2023-12-20T08:52:50;2.78;;;1.98;;
79284;SDS011;68734;50.452;11.636;2023-12-20T08:55:16;5.45;;;1.75;;
79284;SDS011;68734;50.452;11.636;2023-12-20T08:57:43;4.43;;;2.35;;
79284;SDS011;68734;50.452;11.636;2023-12-20T09:00:11;4.22;;;1.98;;
79284;SDS011;68734;50.452;11.636;2023-12-20T09:02:37;2.65;;;1.83;;
79284;SDS011;68734;50.452;11.636;2023-12-20T09:05:04;3.03;;;1.95;;
79284;SDS011;68734;50.452;11.636;2023-12-20T09:07:29;3.55;;;2.17;;
79284;SDS011;68734;50.452;11.636;2023-12-20T09:09:58;3.95;;;2.00;;
79284;SDS011;68734;50.452;11.636;2023-12-20T09:12:23;3.28;;;2.13;;
79284;SDS011;68734;50.452;11.636;2023-12-20T09:14:50;3.58;;;1.77;;
79284;SDS011;68734;50.452;11.636;2023-12-20T09:17:16;6.75;;;1.58;;
79284;SDS011;68734;50.452;11.636;2023-12-20T09:19:45;2.67;;;1.80;;
79284;SDS011;68734;50.452;11.636;2023-12-20T09:22:11;4.82;;;1.80;;
79284;SDS011;68734;50.452;11.636;2023-12-20T09:24:37;2.97;;;2.03;;
79284;SDS011;68734;50.452;11.636;2023-12-20T09:27:03;2.33;;;1.75;;
79284;SDS011;68734;50.452;11.636;2023-12-20T09:29:32;3.47;;;1.75;;
79284;SDS011;68734;50.452;11.636;2023-12-20T09:31:57;3.00;;;1.95;;
79284;SDS011;68734;50.452;11.636;2023-12-20T09:34:23;5.30;;;2.00;;
79284;SDS011;68734;50.452;11.636;2023-12-20T09:36:51;7.57;;;1.80;;
79284;SDS011;68734;50.452;11.636;2023-12-20T09:39:18;2.78;;;1.63;;
79284;SDS011;68734;50.452;11.636;2023-12-20T09:41:45;2.50;;;1.50;;
79284;SDS011;68734;50.452;11.636;2023-12-20T09:44:16;3.15;;;1.85;;
79284;SDS011;68734;50.452;11.636;2023-12-20T09:46:44;5.03;;;2.65;;
79284;SDS011;68734;50.452;11.636;2023-12-20T09:49:13;1.60;;;1.40;;
79284;SDS011;68734;50.452;11.636;2023-12-20T09:51:43;2.53;;;1.83;;
79284;SDS011;68734;50.452;11.636;2023-12-20T09:54:09;3.55;;;1.55;;
79284;SDS011;68734;50.452;11.636;2023-12-20T09:56:37;2.63;;;1.52;;
79284;SDS011;68734;50.452;11.636;2023-12-20T09:59:03;3.88;;;1.67;;
79284;SDS011;68734;50.452;11.636;2023-12-20T10:01:31;1.98;;;1.70;;
79284;SDS011;68734;50.452;11.636;2023-12-20T10:03:56;2.08;;;1.58;;
79284;SDS011;68734;50.452;11.636;2023-12-20T10:06:24;3.70;;;1.95;;
79284;SDS011;68734;50.452;11.636;2023-12-20T10:08:49;2.80;;;1.45;;
79284;SDS011;68734;50.452;11.636;2023-12-20T10:11:15;2.45;;;1.73;;
79284;SDS011;68734;50.452;11.636;2023-12-20T10:13:40;3.22;;;1.95;;
79284;SDS011;68734;50.452;11.636;2023-12-20T10:16:06;3.15;;;1.73;;
79284;SDS011;68734;50.452;11.636;2023-12-20T10:18:32;2.05;;;1.45;;
79284;SDS011;68734;50.452;11.636;2023-12-20T10:21:02;2.25;;;1.38;;
79284;SDS011;68734;50.452;11.636;2023-12-20T10:23:28;4.70;;;2.35;;
79284;SDS011;68734;50.452;11.636;2023-12-20T10:25:59;4.72;;;1.80;;
79284;SDS011;68734;50.452;11.636;2023-12-20T10:28:25;5.40;;;1.50;;
79284;SDS011;68734;50.452;11.636;2023-12-20T10:30:53;3.08;;;1.95;;
79284;SDS011;68734;50.452;11.636;2023-12-20T10:33:31;3.65;;;1.50;;
79284;SDS011;68734;50.452;11.636;2023-12-20T10:35:59;2.90;;;1.30;;
79284;SDS011;68734;50.452;11.636;2023-12-20T10:38:24;3.85;;;1.58;;
79284;SDS011;68734;50.452;11.636;2023-12-20T10:40:52;1.90;;;1.33;;
79284;SDS011;68734;50.452;11.636;2023-12-20T10:43:21;4.32;;;1.52;;
79284;SDS011;68734;50.452;11.636;2023-12-20T10:45:48;5.72;;;1.80;;
79284;SDS011;68734;50.452;11.636;2023-12-20T10:48:13;3.17;;;1.52;;
79284;SDS011;68734;50.452;11.636;2023-12-20T10:50:41;2.15;;;1.58;;
79284;SDS011;68734;50.452;11.636;2023-12-20T10:53:13;3.95;;;1.70;;
79284;SDS011;68734;50.452;11.636;2023-12-20T10:55:41;3.03;;;1.77;;
79284;SDS011;68734;50.452;11.636;2023-12-20T10:58:08;2.28;;;1.67;;
79284;SDS011;68734;50.452;11.636;2023-12-20T11:00:41;1.88;;;1.30;;
79284;SDS011;68734;50.452;11.636;2023-12-20T11:03:11;4.07;;;1.60;;
79284;SDS011;68734;50.452;11.636;2023-12-20T11:08:39;3.72;;;1.88;;
79284;SDS011;68734;50.452;11.636;2023-12-20T11:11:21;3.13;;;1.60;;
79284;SDS011;68734;50.452;11.636;2023-12-20T11:14:02;4.18;;;2.28;;
79284;SDS011;68734;50.452;11.636;2023-12-20T11:16:33;7.03;;;3.80;;
79284;SDS011;68734;50.452;11.636;2023-12-20T11:19:04;4.72;;;2.15;;
79284;SDS011;68734;50.452;11.636;2023-12-20T11:24:01;2.33;;;1.33;;
79284;SDS011;68734;50.452;11.636;2023-12-20T11:26:30;2.00;;;1.02;;
79284;SDS011;68734;50.452;11.636;2023-12-20T11:31:56;5.35;;;1.40;;
79284;SDS011;68734;50.452;11.636;2023-12-20T11:34:22;3.67;;;1.42;;
79284;SDS011;68734;50.452;11.636;2023-12-20T11:37:02;2.30;;;1.25;;
79284;SDS011;68734;50.452;11.636;2023-12-20T11:39:28;4.80;;;1.70;;
79284;SDS011;68734;50.452;11.636;2023-12-20T11:41:55;4.47;;;1.83;;
79284;SDS011;68734;50.452;11.636;2023-12-20T11:44:22;2.35;;;1.27;;
79284;SDS011;68734;50.452;11.636;2023-12-20T11:46:50;2.60;;;1.35;;
79284;SDS011;68734;50.452;11.636;2023-12-20T11:49:16;3.92;;;1.48;;
79284;SDS011;68734;50.452;11.636;2023-12-20T11:51:41;5.25;;;1.50;;
79284;SDS011;68734;50.452;11.636;2023-12-20T11:54:07;4.40;;;1.60;;
79284;SDS011;68734;50.452;11.636;2023-12-20T11:56:38;3.80;;;1.42;;
79284;SDS011;68734;50.452;11.636;2023-12-20T11:59:04;5.72;;;1.45;;
79284;SDS011;68734;50.452;11.636;2023-12-20T12:01:29;2.13;;;1.25;;
79284;SDS011;68734;50.452;11.636;2023-12-20T12:04:14;6.07;;;1.48;;
79284;SDS011;68734;50.452;11.636;2023-12-20T12:06:40;3.70;;;1.50;;
79284;SDS011;68734;50.452;11.636;2023-12-20T12:09:06;5.85;;;1.90;;
79284;SDS011;68734;50.452;11.636;2023-12-20T12:11:31;2.67;;;1.38;;
79284;SDS011;68734;50.452;11.636;2023-12-20T12:13:57;2.97;;;1.30;;
79284;SDS011;68734;50.452;11.636;2023-12-20T12:16:22;5.35;;;1.73;;
79284;SDS011;68734;50.452;11.636;2023-12-20T12:18:58;1.85;;;1.30;;
79284;SDS011;68734;50.452;11.636;2023-12-20T12:21:26;2.60;;;1.63;;
79284;SDS011;68734;50.452;11.636;2023-12-20T12:23:51;5.88;;;1.98;;
79284;SDS011;68734;50.452;11.636;2023-12-20T12:26:18;4.88;;;1.52;;
79284;SDS011;68734;50.452;11.636;2023-12-20T12:28:43;1.98;;;1.05;;
79284;SDS011;68734;50.452;11.636;2023-12-20T12:31:15;1.88;;;1.00;;
79284;SDS011;68734;50.452;11.636;2023-12-20T12:33:42;4.53;;;2.30;;
79284;SDS011;68734;50.452;11.636;2023-12-20T12:36:09;2.83;;;0.88;;
79284;SDS011;68734;50.452;11.636;2023-12-20T12:38:36;1.15;;;0.70;;
79284;SDS011;68734;50.452;11.636;2023-12-20T12:41:01;1.70;;;0.75;;
79284;SDS011;68734;50.452;11.636;2023-12-20T12:43:27;1.20;;;0.70;;
79284;SDS011;68734;50.452;11.636;2023-12-20T12:45:55;1.23;;;0.90;;
79284;SDS011;68734;50.452;11.636;2023-12-20T12:48:20;2.90;;;0.98;;
79284;SDS011;68734;50.452;11.636;2023-12-20T12:50:46;2.15;;;1.10;;
79284;SDS011;68734;50.452;11.636;2023-12-20T12:53:16;1.50;;;1.00;;
79284;SDS011;68734;50.452;11.636;2023-12-20T12:55:44;1.48;;;1.10;;
79284;SDS011;68734;50.452;11.636;2023-12-20T12:58:11;2.78;;;1.08;;
79284;SDS011;68734;50.452;11.636;2023-12-20T13:00:37;2.75;;;1.05;;
79284;SDS011;68734;50.452;11.636;2023-12-20T13:03:02;4.00;;;0.82;;
79284;SDS011;68734;50.452;11.636;2023-12-20T13:05:29;4.13;;;1.60;;
79284;SDS011;68734;50.452;11.636;2023-12-20T13:07:55;2.80;;;1.60;;
79284;SDS011;68734;50.452;11.636;2023-12-20T13:10:21;2.28;;;1.58;;
79284;SDS011;68734;50.452;11.636;2023-12-20T13:12:49;4.38;;;1.40;;
79284;SDS011;68734;50.452;11.636;2023-12-20T13:15:14;1.70;;;1.33;;
79284;SDS011;68734;50.452;11.636;2023-12-20T13:17:45;1.55;;;1.02;;
79284;SDS011;68734;50.452;11.636;2023-12-20T13:20:11;3.47;;;1.27;;
79284;SDS011;68734;50.452;11.636;2023-12-20T13:22:39;3.55;;;1.23;;
79284;SDS011;68734;50.452;11.636;2023-12-20T13:25:05;3.03;;;1.65;;
79284;SDS011;68734;50.452;11.636;2023-12-20T13:27:31;5.80;;;2.17;;
79284;SDS011;68734;50.452;11.636;2023-12-20T13:29:59;4.70;;;2.38;;
79284;SDS011;68734;50.452;11.636;2023-12-20T13:32:24;2.63;;;1.20;;
79284;SDS011;68734;50.452;11.636;2023-12-20T13:34:50;2.92;;;1.20;;
79284;SDS011;68734;50.452;11.636;2023-12-20T13:37:16;3.15;;;1.20;;
79284;SDS011;68734;50.452;11.636;2023-12-20T13:39:41;3.38;;;1.10;;
79284;SDS011;68734;50.452;11.636;2023-12-20T13:42:07;2.95;;;1.63;;
79284;SDS011;68734;50.452;11.636;2023-12-20T13:44:32;6.65;;;2.00;;
79284;SDS011;68734;50.452;11.636;2023-12-20T13:46:59;3.50;;;1.58;;
79284;SDS011;68734;50.452;11.636;2023-12-20T13:49:24;2.13;;;1.42;;
79284;SDS011;68734;50.452;11.636;2023-12-20T13:51:50;4.25;;;1.45;;
79284;SDS011;68734;50.452;11.636;2023-12-20T13:54:16;4.15;;;1.35;;
79284;SDS011;68734;50.452;11.636;2023-12-20T13:56:45;5.15;;;1.55;;
79284;SDS011;68734;50.452;11.636;2023-12-20T13:59:10;2.15;;;1.23;;
79284;SDS011;68734;50.452;11.636;2023-12-20T14:01:39;3.85;;;1.63;;
79284;SDS011;68734;50.452;11.636;2023-12-20T14:04:04;1.92;;;1.10;;
79284;SDS011;68734;50.452;11.636;2023-12-20T14:06:30;4.22;;;1.40;;
79284;SDS011;68734;50.452;11.636;2023-12-20T14:08:56;2.90;;;1.80;;
79284;SDS011;68734;50.452;11.636;2023-12-20T14:11:21;4.75;;;2.33;;
79284;SDS011;68734;50.452;11.636;2023-12-20T14:13:47;6.07;;;2.97;;
79284;SDS011;68734;50.452;11.636;2023-12-20T14:16:12;3.70;;;1.80;;
79284;SDS011;68734;50.452;11.636;2023-12-20T14:18:38;3.67;;;1.77;;
79284;SDS011;68734;50.452;11.636;2023-12-20T14:21:05;5.93;;;1.73;;
79284;SDS011;68734;50.452;11.636;2023-12-20T14:23:31;3.35;;;1.40;;
79284;SDS011;68734;50.452;11.636;2023-12-20T14:25:58;7.60;;;1.58;;
79284;SDS011;68734;50.452;11.636;2023-12-20T14:28:27;6.00;;;1.40;;
79284;SDS011;68734;50.452;11.636;2023-12-20T14:30:52;3.58;;;1.60;;
79284;SDS011;68734;50.452;11.636;2023-12-20T14:33:18;5.13;;;2.15;;
79284;SDS011;68734;50.452;11.636;2023-12-20T14:35:46;3.42;;;2.10;;
79284;SDS011;68734;50.452;11.636;2023-12-20T14:38:12;2.75;;;1.10;;